Time;durP1;ratioP1;P1;durP2;ratioP2;P2;SDS_P1;SDS_P2;PMS_P1;PMS_P2;Temp;Humidity;BMP_temperature;BMP_pressure;BME280_temperature;BME280_humidity;BME280_pressure;Samples;Min_cycle;Max_cycle;Signal;HPM_P1;HPM_P2
2023/11/01 00:02:04;;;;;;;1.80;1.00;;;10.30;99.90;;;;;;7499272;19;20011;-78
2023/11/01 00:04:36;;;;;;;2.67;0.77;;;10.20;99.90;;;;;;7484999;19;20024;-78
2023/11/01 00:07:08;;;;;;;1.50;0.70;;;10.20;99.90;;;;;;7499481;19;20091;-78
2023/11/01 00:09:41;;;;;;;3.88;0.52;;;10.20;99.90;;;;;;7480323;19;20010;-79
2023/11/01 00:12:13;;;;;;;1.73;0.70;;;10.20;99.90;;;;;;7495014;19;20100;-77
2023/11/01 00:14:45;;;;;;;4.30;0.65;;;10.10;99.90;;;;;;7481002;19;21041;-79
2023/11/01 00:17:18;;;;;;;3.00;0.90;;;10.20;99.90;;;;;;7478388;19;20619;-76
2023/11/01 00:19:50;;;;;;;0.98;0.65;;;10.10;99.90;;;;;;7477429;19;21137;-78
2023/11/01 00:22:22;;;;;;;2.25;0.80;;;10.10;99.90;;;;;;7506400;19;21881;-79
2023/11/01 00:24:55;;;;;;;2.90;0.75;;;10.10;99.90;;;;;;7477659;19;20010;-76
2023/11/01 00:27:30;;;;;;;2.00;0.70;;;10.00;99.90;;;;;;7470416;19;20010;-79
2023/11/01 00:30:03;;;;;;;1.48;0.90;;;10.10;99.90;;;;;;7482040;19;20014;-80
2023/11/01 00:32:39;;;;;;;3.28;0.80;;;10.00;99.90;;;;;;7500821;19;20079;-79
2023/11/01 00:35:12;;;;;;;2.55;0.93;;;9.90;99.90;;;;;;7468026;19;20674;-78
2023/11/01 00:37:44;;;;;;;3.80;1.02;;;10.00;99.90;;;;;;7469711;19;20022;-80
2023/11/01 00:40:17;;;;;;;0.80;0.80;;;9.90;99.90;;;;;;7488930;19;20011;-80
2023/11/01 00:42:50;;;;;;;2.30;0.70;;;9.90;99.90;;;;;;7479059;19;20029;-79
2023/11/01 00:45:22;;;;;;;4.28;0.68;;;9.90;99.90;;;;;;7501711;19;21014;-78
2023/11/01 00:47:54;;;;;;;1.90;0.80;;;9.90;99.90;;;;;;7472148;19;20014;-78
2023/11/01 00:50:27;;;;;;;1.58;0.82;;;9.80;99.90;;;;;;7479532;19;20358;-78
2023/11/01 00:53:00;;;;;;;5.03;1.15;;;9.70;99.90;;;;;;7468449;19;20025;-78
2023/11/01 00:55:32;;;;;;;3.88;0.85;;;9.70;99.90;;;;;;7492000;19;20025;-79
2023/11/01 00:58:05;;;;;;;2.20;0.88;;;9.60;99.90;;;;;;7488956;19;20010;-77
2023/11/01 01:00:38;;;;;;;1.80;0.80;;;9.60;99.90;;;;;;7498440;19;20018;-78
2023/11/01 01:03:10;;;;;;;2.40;1.00;;;9.50;99.90;;;;;;7478572;19;20515;-76
2023/11/01 01:05:43;;;;;;;1.17;1.00;;;9.50;99.90;;;;;;7488276;19;20033;-77
2023/11/01 01:08:15;;;;;;;4.13;0.70;;;9.50;99.90;;;;;;7474978;19;21171;-77
2023/11/01 01:10:48;;;;;;;4.25;1.10;;;9.50;99.90;;;;;;7476215;19;20022;-76
2023/11/01 01:13:20;;;;;;;3.30;0.85;;;9.40;99.90;;;;;;7498861;19;20024;-78
2023/11/01 01:15:53;;;;;;;2.00;1.00;;;9.50;99.90;;;;;;7472932;19;20304;-79
2023/11/01 01:18:25;;;;;;;1.75;1.20;;;9.40;99.90;;;;;;7487386;19;20017;-79
2023/11/01 01:20:58;;;;;;;6.50;1.13;;;9.40;99.90;;;;;;7493252;19;20254;-78
2023/11/01 01:23:30;;;;;;;3.92;1.17;;;9.30;99.90;;;;;;7479533;19;20071;-78
2023/11/01 01:26:03;;;;;;;1.67;0.98;;;9.20;99.90;;;;;;7478426;19;20013;-77
2023/11/01 01:28:35;;;;;;;2.43;1.00;;;9.20;99.90;;;;;;7475916;19;20139;-77
2023/11/01 01:31:08;;;;;;;2.20;0.88;;;9.00;99.90;;;;;;7493097;19;20266;-78
2023/11/01 01:33:44;;;;;;;4.82;1.00;;;9.00;99.90;;;;;;7471249;19;20018;-77
2023/11/01 01:36:16;;;;;;;5.40;1.08;;;8.90;99.90;;;;;;7469368;19;20306;-78
2023/11/01 01:38:48;;;;;;;3.03;1.17;;;8.80;99.90;;;;;;7491749;19;20332;-77
2023/11/01 01:41:21;;;;;;;1.70;0.70;;;8.80;99.90;;;;;;7474874;19;20002;-77
2023/11/01 01:43:53;;;;;;;2.65;1.23;;;8.80;99.90;;;;;;7483368;19;20586;-76
2023/11/01 01:46:29;;;;;;;1.42;0.75;;;8.80;99.90;;;;;;7476072;19;20018;-77
2023/11/01 01:49:01;;;;;;;2.45;1.20;;;8.80;99.90;;;;;;7466140;19;20037;-77
2023/11/01 01:51:36;;;;;;;2.00;1.13;;;8.80;99.90;;;;;;7490159;19;20011;-79
2023/11/01 01:54:09;;;;;;;2.55;1.20;;;8.80;99.90;;;;;;7493450;19;20033;-78
2023/11/01 01:56:41;;;;;;;1.48;0.70;;;8.70;99.90;;;;;;7480556;19;20548;-78
2023/11/01 01:59:14;;;;;;;2.53;0.80;;;8.80;99.90;;;;;;7486626;19;21179;-79
2023/11/01 02:01:48;;;;;;;1.67;0.82;;;8.80;99.90;;;;;;7483292;19;20487;-79
2023/11/01 02:04:20;;;;;;;1.98;0.80;;;8.70;99.90;;;;;;7485492;19;20484;-77
2023/11/01 02:06:53;;;;;;;2.13;0.90;;;8.70;99.90;;;;;;7479531;19;20431;-77
2023/11/01 02:09:25;;;;;;;3.88;0.80;;;8.70;99.90;;;;;;7472456;19;20014;-78
2023/11/01 02:11:59;;;;;;;2.20;0.88;;;8.60;99.90;;;;;;7495818;19;20014;-76
2023/11/01 02:14:31;;;;;;;2.15;0.75;;;8.50;99.90;;;;;;7492854;19;20018;-78
2023/11/01 02:17:06;;;;;;;3.15;0.85;;;8.40;99.90;;;;;;7469450;19;20398;-76
2023/11/01 02:19:38;;;;;;;2.60;0.85;;;8.40;99.90;;;;;;7467321;19;20108;-79
2023/11/01 02:22:10;;;;;;;1.50;0.90;;;8.40;99.90;;;;;;7494836;19;20044;-76
2023/11/01 02:24:43;;;;;;;1.65;0.70;;;8.30;99.90;;;;;;7480383;19;20018;-77
2023/11/01 02:27:15;;;;;;;2.30;0.90;;;8.40;99.90;;;;;;7495407;19;20372;-79
2023/11/01 02:29:47;;;;;;;3.28;1.13;;;8.40;99.90;;;;;;7477018;19;20101;-75
2023/11/01 02:32:22;;;;;;;1.30;0.85;;;8.40;99.90;;;;;;7478407;19;20585;-80
2023/11/01 02:34:54;;;;;;;1.55;0.70;;;8.40;99.90;;;;;;7471139;19;20691;-77
2023/11/01 02:37:29;;;;;;;1.05;0.70;;;8.30;99.90;;;;;;7481907;19;20848;-76
2023/11/01 02:40:01;;;;;;;1.67;0.98;;;8.20;99.90;;;;;;7488946;19;20010;-79
2023/11/01 02:42:34;;;;;;;3.47;0.98;;;8.10;99.90;;;;;;7489341;19;20738;-78
2023/11/01 02:45:10;;;;;;;1.88;1.20;;;8.00;99.90;;;;;;7502854;19;20014;-77
2023/11/01 02:47:43;;;;;;;2.65;1.02;;;7.90;99.90;;;;;;7510494;19;20464;-78
2023/11/01 02:50:17;;;;;;;2.75;0.90;;;7.90;99.90;;;;;;7519836;19;20393;-78
2023/11/01 02:52:50;;;;;;;1.83;0.93;;;8.00;99.90;;;;;;7528496;19;20131;-78
2023/11/01 02:55:25;;;;;;;4.73;0.80;;;7.90;99.90;;;;;;7522367;19;20392;-77
2023/11/01 02:57:57;;;;;;;5.30;1.70;;;7.90;99.90;;;;;;7514066;19;20551;-79
2023/11/01 03:00:30;;;;;;;1.67;1.33;;;7.90;99.90;;;;;;7516472;19;20023;-78
2023/11/01 03:03:03;;;;;;;2.45;1.25;;;7.90;99.90;;;;;;7516093;19;20011;-77
2023/11/01 03:05:35;;;;;;;2.20;0.95;;;7.90;99.90;;;;;;7519375;19;20017;-79
2023/11/01 03:08:08;;;;;;;8.68;0.77;;;7.90;99.90;;;;;;7529136;19;20033;-78
2023/11/01 03:10:41;;;;;;;2.58;1.02;;;7.80;99.90;;;;;;7519925;19;20354;-78
2023/11/01 03:13:13;;;;;;;3.10;1.23;;;7.80;99.90;;;;;;7508296;19;21230;-77
2023/11/01 03:15:48;;;;;;;4.55;1.02;;;7.70;99.90;;;;;;7524210;19;20002;-77
2023/11/01 03:18:20;;;;;;;3.42;0.90;;;7.70;99.90;;;;;;7523966;19;20043;-77
2023/11/01 03:20:52;;;;;;;3.45;0.65;;;7.70;99.90;;;;;;7543110;19;20018;-79
2023/11/01 03:23:25;;;;;;;3.30;0.83;;;7.70;99.90;;;;;;7544192;19;20447;-78
2023/11/01 03:25:57;;;;;;;3.35;0.80;;;7.70;99.90;;;;;;7527375;19;20014;-77
2023/11/01 03:28:30;;;;;;;1.00;0.90;;;7.70;99.90;;;;;;7527122;19;20983;-77
2023/11/01 03:31:02;;;;;;;2.22;0.90;;;7.60;99.90;;;;;;7514055;19;20858;-79
2023/11/01 03:33:34;;;;;;;7.90;1.20;;;7.50;99.90;;;;;;7523421;19;21309;-77
2023/11/01 03:36:07;;;;;;;1.60;0.90;;;7.50;99.90;;;;;;7533735;19;21622;-77
2023/11/01 03:38:39;;;;;;;1.23;0.90;;;7.40;99.90;;;;;;7525024;19;20056;-77
2023/11/01 03:41:13;;;;;;;1.85;1.02;;;7.40;99.90;;;;;;7529717;19;20056;-77
2023/11/01 03:43:45;;;;;;;0.93;0.80;;;7.40;99.90;;;;;;7513838;19;20042;-76
2023/11/01 03:46:19;;;;;;;0.80;0.80;;;7.30;99.90;;;;;;7517210;19;20030;-77
2023/11/01 03:48:51;;;;;;;2.05;1.05;;;7.30;99.90;;;;;;7514995;19;20030;-77
2023/11/01 03:51:24;;;;;;;3.78;1.13;;;7.30;99.90;;;;;;7530224;19;20899;-77
2023/11/01 03:53:56;;;;;;;4.75;1.00;;;7.30;99.90;;;;;;7513317;19;20182;-77
2023/11/01 03:56:28;;;;;;;3.92;1.15;;;7.30;99.90;;;;;;7522434;19;20018;-77
2023/11/01 03:59:01;;;;;;;2.35;0.95;;;7.20;99.90;;;;;;7522392;19;20014;-77
2023/11/01 04:01:36;;;;;;;1.35;0.98;;;7.10;99.90;;;;;;7521189;19;20010;-77
2023/11/01 04:04:09;;;;;;;2.40;1.00;;;7.20;99.90;;;;;;7528241;19;20018;-77
2023/11/01 04:06:41;;;;;;;4.40;1.55;;;7.10;99.90;;;;;;7511742;19;20896;-78
2023/11/01 04:09:14;;;;;;;5.82;0.88;;;7.10;99.90;;;;;;7523488;19;20658;-78
2023/11/01 04:11:46;;;;;;;2.45;0.80;;;7.00;99.90;;;;;;7522380;19;20485;-78
2023/11/01 04:14:18;;;;;;;4.38;0.93;;;7.10;99.90;;;;;;7511784;19;20014;-77
2023/11/01 04:16:50;;;;;;;3.22;0.90;;;7.10;99.90;;;;;;7508935;19;20674;-79
2023/11/01 04:19:23;;;;;;;4.32;1.10;;;7.10;99.90;;;;;;7529606;19;20015;-77
2023/11/01 04:21:56;;;;;;;1.27;0.80;;;7.10;99.90;;;;;;7520675;19;20015;-77
2023/11/01 04:24:28;;;;;;;1.83;1.17;;;7.00;99.90;;;;;;7527614;19;20755;-81
2023/11/01 04:27:01;;;;;;;2.00;0.90;;;7.00;99.90;;;;;;7521722;19;20042;-76
2023/11/01 04:29:33;;;;;;;1.55;0.88;;;7.10;99.90;;;;;;7524842;19;20283;-77
2023/11/01 04:32:05;;;;;;;1.77;0.80;;;7.00;99.90;;;;;;7527667;19;20047;-76
2023/11/01 04:34:37;;;;;;;2.47;0.93;;;7.00;99.90;;;;;;7520242;19;20365;-77
2023/11/01 04:37:10;;;;;;;1.33;0.70;;;6.90;99.90;;;;;;7524097;19;20011;-77
2023/11/01 04:39:46;;;;;;;7.18;1.27;;;6.90;99.90;;;;;;7514042;19;20019;-78
2023/11/01 04:42:18;;;;;;;1.02;0.90;;;6.90;99.90;;;;;;7517756;19;20010;-77
2023/11/01 04:44:51;;;;;;;1.35;0.93;;;7.00;99.90;;;;;;7525899;19;20028;-78
2023/11/01 04:47:23;;;;;;;1.40;0.93;;;7.00;99.90;;;;;;7528031;19;20018;-79
2023/11/01 04:49:57;;;;;;;1.25;0.95;;;6.90;99.90;;;;;;7526802;19;20270;-77
2023/11/01 04:52:30;;;;;;;1.23;0.90;;;7.00;99.90;;;;;;7526241;19;20058;-81
2023/11/01 04:55:06;;;;;;;2.88;0.98;;;6.90;99.90;;;;;;7532392;19;20078;-79
2023/11/01 04:57:39;;;;;;;3.33;0.85;;;6.80;99.90;;;;;;7525596;19;20090;-78
2023/11/01 05:00:15;;;;;;;1.15;1.00;;;6.70;99.90;;;;;;7535375;19;20102;-76
2023/11/01 05:02:48;;;;;;;2.25;1.23;;;6.70;99.90;;;;;;7520150;19;20756;-77
2023/11/01 05:05:21;;;;;;;1.10;0.70;;;6.70;99.90;;;;;;7517932;19;20666;-77
2023/11/01 05:07:53;;;;;;;0.75;0.75;;;6.70;99.90;;;;;;7521060;19;20018;-78
2023/11/01 05:10:26;;;;;;;1.33;0.88;;;6.70;99.90;;;;;;7517408;19;20018;-78
2023/11/01 05:12:59;;;;;;;0.90;0.90;;;6.70;99.90;;;;;;7515494;19;20097;-76
2023/11/01 05:15:36;;;;;;;0.90;0.90;;;6.60;99.90;;;;;;7523102;19;20014;-78
2023/11/01 05:18:08;;;;;;;1.10;0.90;;;6.60;99.90;;;;;;7501841;19;20018;-77
2023/11/01 05:20:41;;;;;;;1.58;0.95;;;6.60;99.90;;;;;;7524725;19;21454;-77
2023/11/01 05:23:13;;;;;;;3.58;1.15;;;6.60;99.90;;;;;;7510942;19;20519;-76
2023/11/01 05:25:47;;;;;;;2.05;0.98;;;6.60;99.90;;;;;;7520862;19;20018;-77
2023/11/01 05:28:20;;;;;;;0.80;0.80;;;6.60;99.90;;;;;;7526045;19;21044;-77
2023/11/01 05:30:53;;;;;;;1.50;0.90;;;6.60;99.90;;;;;;7516890;19;20106;-78
2023/11/01 05:33:25;;;;;;;1.17;0.93;;;6.50;99.90;;;;;;7528934;19;20749;-78
2023/11/01 05:35:58;;;;;;;2.50;0.80;;;6.50;99.90;;;;;;7522748;19;20716;-77
2023/11/01 05:38:30;;;;;;;2.20;1.00;;;6.50;99.90;;;;;;7530093;19;20040;-77
2023/11/01 05:41:03;;;;;;;1.80;0.80;;;6.40;99.90;;;;;;7527067;19;20056;-76
2023/11/01 05:43:37;;;;;;;1.58;0.95;;;6.30;99.90;;;;;;7530554;19;20018;-78
2023/11/01 05:46:09;;;;;;;0.70;0.60;;;6.30;99.90;;;;;;7529363;19;20423;-77
2023/11/01 05:48:42;;;;;;;0.85;0.70;;;6.40;99.90;;;;;;7538314;19;20022;-77
2023/11/01 05:51:16;;;;;;;;;;;6.40;99.90;;;;;;7540202;19;20467;-77
2023/11/01 05:53:48;;;;;;;2.42;1.02;;;6.30;99.90;;;;;;7532867;19;20277;-77
2023/11/01 05:56:23;;;;;;;1.08;0.80;;;6.30;99.90;;;;;;7536553;19;20618;-78
2023/11/01 05:58:55;;;;;;;6.85;0.80;;;6.30;99.90;;;;;;7525486;19;20580;-76
2023/11/01 06:01:28;;;;;;;1.38;0.63;;;6.30;99.90;;;;;;7517234;19;20056;-77
2023/11/01 06:04:01;;;;;;;1.33;1.07;;;6.30;99.90;;;;;;7515118;19;20052;-77
2023/11/01 06:06:34;;;;;;;;;;;6.30;99.90;;;;;;7520726;19;20271;-76
2023/11/01 06:09:07;;;;;;;0.70;0.70;;;6.30;99.90;;;;;;7533495;19;20550;-76
2023/11/01 06:11:43;;;;;;;0.80;0.77;;;6.30;99.90;;;;;;7525626;19;20482;-77
2023/11/01 06:14:16;;;;;;;4.53;1.05;;;6.30;99.90;;;;;;7525580;19;20944;-77
2023/11/01 06:16:48;;;;;;;1.70;1.10;;;6.30;99.90;;;;;;7530917;19;20698;-78
2023/11/01 06:19:21;;;;;;;1.00;0.90;;;6.30;99.90;;;;;;7542360;19;20014;-79
2023/11/01 06:21:54;;;;;;;0.95;0.85;;;6.30;99.90;;;;;;7536357;19;20636;-78
2023/11/01 06:24:26;;;;;;;1.23;0.82;;;6.30;99.90;;;;;;7536116;19;20700;-77
2023/11/01 06:27:00;;;;;;;1.25;0.90;;;6.40;99.90;;;;;;7541291;19;20616;-77
2023/11/01 06:29:32;;;;;;;1.73;1.23;;;6.40;99.90;;;;;;7534203;19;20089;-77
2023/11/01 06:32:04;;;;;;;0.73;0.60;;;6.40;99.90;;;;;;7542751;19;20051;-78
2023/11/01 06:34:39;;;;;;;1.50;1.10;;;6.40;99.90;;;;;;7536247;19;20029;-77
2023/11/01 06:37:12;;;;;;;2.50;1.30;;;6.50;99.90;;;;;;7538532;19;20020;-77
2023/11/01 06:39:45;;;;;;;1.88;1.20;;;6.50;99.90;;;;;;7530522;19;20017;-77
2023/11/01 06:42:17;;;;;;;1.13;0.90;;;6.60;99.90;;;;;;7530461;19;20662;-77
2023/11/01 06:44:49;;;;;;;2.50;0.73;;;6.60;99.90;;;;;;7520198;19;20987;-77
2023/11/01 06:47:22;;;;;;;1.75;1.10;;;6.60;99.90;;;;;;7517413;19;20370;-78
2023/11/01 06:49:54;;;;;;;2.35;0.88;;;6.60;99.90;;;;;;7523318;19;20449;-79
2023/11/01 06:52:26;;;;;;;1.08;0.95;;;6.70;99.90;;;;;;7532427;19;20010;-77
2023/11/01 06:55:00;;;;;;;1.77;1.00;;;6.70;99.90;;;;;;7536002;19;20534;-76
2023/11/01 06:57:33;;;;;;;1.05;0.90;;;6.80;99.90;;;;;;7534700;19;20610;-78
2023/11/01 07:00:13;;;;;;;1.92;1.20;;;6.90;99.90;;;;;;7558095;19;20014;-77
2023/11/01 07:02:46;;;;;;;0.98;0.85;;;6.90;99.90;;;;;;7556586;19;20592;-77
2023/11/01 07:05:19;;;;;;;1.73;0.95;;;6.90;99.90;;;;;;7554271;19;20029;-77
2023/11/01 07:07:51;;;;;;;6.90;1.10;;;6.90;99.90;;;;;;7552809;19;20011;-77
2023/11/01 07:10:23;;;;;;;1.05;0.80;;;7.10;99.90;;;;;;7537949;19;20018;-79
2023/11/01 07:12:57;;;;;;;1.63;0.70;;;7.30;99.90;;;;;;7529610;19;20030;-78
2023/11/01 07:15:30;;;;;;;1.35;0.80;;;7.30;99.90;;;;;;7531471;19;20800;-78
2023/11/01 07:18:02;;;;;;;1.48;1.02;;;7.40;99.90;;;;;;7523316;19;20015;-78
2023/11/01 07:20:35;;;;;;;1.00;0.77;;;7.50;99.90;;;;;;7523676;19;20018;-79
2023/11/01 07:23:07;;;;;;;3.63;0.88;;;7.60;99.90;;;;;;7520077;19;20290;-79
2023/11/01 07:25:40;;;;;;;1.60;1.00;;;7.70;99.90;;;;;;7513849;19;20614;-78
2023/11/01 07:28:14;;;;;;;0.98;0.85;;;7.80;99.90;;;;;;7527065;19;20055;-79
2023/11/01 07:30:46;;;;;;;1.33;0.95;;;7.80;99.90;;;;;;7518207;19;20022;-79
2023/11/01 07:33:19;;;;;;;2.33;1.13;;;7.90;99.90;;;;;;7513509;19;20415;-79
2023/11/01 07:35:51;;;;;;;1.15;0.90;;;8.00;99.90;;;;;;7530788;19;20730;-78
2023/11/01 07:38:26;;;;;;;1.58;0.95;;;8.00;99.90;;;;;;7505706;19;20435;-78
2023/11/01 07:40:59;;;;;;;2.83;1.58;;;8.10;99.90;;;;;;7508978;19;20093;-77
2023/11/01 07:43:32;;;;;;;1.67;1.00;;;8.30;99.90;;;;;;7511794;19;20019;-78
2023/11/01 07:46:05;;;;;;;2.45;1.08;;;8.30;99.90;;;;;;7508186;19;20367;-79
2023/11/01 07:48:38;;;;;;;2.10;1.10;;;8.50;99.90;;;;;;7507459;19;20115;-79
2023/11/01 07:51:11;;;;;;;4.47;1.35;;;8.50;99.90;;;;;;7507038;19;20011;-78
2023/11/01 07:53:43;;;;;;;1.20;1.10;;;8.60;99.90;;;;;;7506779;19;20238;-79
2023/11/01 07:56:16;;;;;;;3.90;1.90;;;8.60;99.90;;;;;;7517147;19;20010;-78
2023/11/01 07:58:49;;;;;;;4.53;2.13;;;8.70;99.90;;;;;;7521094;19;20044;-78
2023/11/01 08:01:21;;;;;;;1.67;1.02;;;8.80;99.90;;;;;;7519207;19;20025;-79
2023/11/01 08:03:53;;;;;;;3.08;1.27;;;8.90;99.90;;;;;;7524221;19;20258;-79
2023/11/01 08:06:26;;;;;;;1.70;1.10;;;9.00;99.90;;;;;;7520333;19;20014;-79
2023/11/01 08:08:58;;;;;;;2.20;1.17;;;9.10;99.90;;;;;;7520409;19;20528;-79
2023/11/01 08:11:31;;;;;;;3.78;1.02;;;9.10;99.90;;;;;;7507206;19;20543;-76
2023/11/01 08:14:06;;;;;;;0.75;0.50;;;9.20;99.90;;;;;;7525534;19;20547;-78
2023/11/01 08:16:38;;;;;;;1.67;0.80;;;9.30;99.90;;;;;;7514625;19;20706;-77
2023/11/01 08:19:10;;;;;;;1.88;0.82;;;9.30;99.90;;;;;;7522293;19;20714;-79
2023/11/01 08:21:43;;;;;;;1.20;0.90;;;9.40;99.90;;;;;;7536826;19;20402;-80
2023/11/01 08:24:15;;;;;;;0.98;0.80;;;9.60;99.90;;;;;;7526795;19;20030;-78
2023/11/01 08:26:48;;;;;;;2.17;1.23;;;9.70;99.90;;;;;;7509286;19;20011;-79
2023/11/01 08:29:24;;;;;;;1.50;1.10;;;9.70;99.90;;;;;;7514269;19;20014;-78
2023/11/01 08:31:58;;;;;;;1.63;0.68;;;9.80;99.90;;;;;;7503052;19;20651;-78
2023/11/01 08:34:30;;;;;;;1.35;0.93;;;9.80;99.90;;;;;;7518269;19;20026;-77
2023/11/01 08:37:04;;;;;;;2.70;0.70;;;9.90;99.90;;;;;;7514914;19;20017;-78
2023/11/01 08:39:37;;;;;;;1.65;0.70;;;10.00;99.90;;;;;;7501057;19;20740;-77
2023/11/01 08:42:29;;;;;;;1.98;0.80;;;10.10;99.90;;;;;;7523608;19;20659;-78
2023/11/01 08:45:20;;;;;;;1.35;0.80;;;10.10;99.90;;;;;;7516594;19;20010;-78
2023/11/01 08:47:52;;;;;;;1.05;0.60;;;10.30;99.90;;;;;;7456776;19;20018;-78
2023/11/01 08:50:25;;;;;;;0.80;0.40;;;10.40;99.90;;;;;;7444149;19;20040;-78
2023/11/01 08:52:58;;;;;;;1.50;0.80;;;10.60;99.90;;;;;;7467239;19;20269;-77
2023/11/01 08:55:31;;;;;;;1.17;0.80;;;10.70;99.90;;;;;;7465425;19;20551;-78
2023/11/01 08:58:03;;;;;;;0.73;0.55;;;10.70;99.90;;;;;;7453484;19;21276;-78
2023/11/01 09:00:35;;;;;;;1.05;0.50;;;10.90;99.90;;;;;;7428445;19;20018;-78
2023/11/01 09:03:22;;;;;;;0.50;0.50;;;11.00;99.90;;;;;;7463674;19;20019;-78
2023/11/01 09:05:55;;;;;;;1.08;0.65;;;11.10;99.90;;;;;;7461704;19;21340;-78
2023/11/01 09:08:27;;;;;;;1.48;0.70;;;11.10;99.90;;;;;;7488132;19;21782;-79
2023/11/01 09:11:00;;;;;;;1.88;0.75;;;11.10;99.90;;;;;;7490575;19;20018;-79
2023/11/01 09:13:32;;;;;;;1.63;0.50;;;11.20;99.90;;;;;;7444823;19;20025;-78
2023/11/01 09:16:05;;;;;;;3.05;0.88;;;11.30;99.90;;;;;;7463444;19;20049;-78
2023/11/01 09:18:38;;;;;;;;;;;11.40;99.90;;;;;;7432673;19;20017;-77
2023/11/01 09:21:10;;;;;;;1.70;0.60;;;11.60;99.90;;;;;;7456207;19;20933;-78
2023/11/01 09:23:42;;;;;;;1.17;0.80;;;11.60;99.90;;;;;;7472397;19;20050;-78
2023/11/01 09:26:17;;;;;;;0.82;0.52;;;11.70;99.90;;;;;;7469815;19;21272;-79
2023/11/01 09:28:49;;;;;;;0.60;0.40;;;11.80;99.90;;;;;;7486313;19;20018;-77
2023/11/01 09:31:21;;;;;;;0.73;0.50;;;12.00;99.90;;;;;;7477940;19;20538;-77
2023/11/01 09:33:54;;;;;;;1.30;0.50;;;12.10;99.90;;;;;;7487047;19;21505;-77
2023/11/01 09:36:26;;;;;;;1.67;0.63;;;12.10;99.90;;;;;;7488313;19;20021;-77
2023/11/01 09:38:58;;;;;;;0.70;0.50;;;12.10;99.90;;;;;;7483757;19;20862;-77
2023/11/01 09:41:50;;;;;;;1.00;0.40;;;12.20;99.90;;;;;;7488556;19;20011;-79
2023/11/01 09:44:22;;;;;;;1.83;0.55;;;12.30;99.90;;;;;;7413344;19;20309;-80
2023/11/01 09:46:56;;;;;;;0.90;0.70;;;12.40;99.90;;;;;;7461534;19;20558;-76
2023/11/01 09:49:30;;;;;;;2.75;0.77;;;12.40;99.90;;;;;;7434147;19;20283;-79
2023/11/01 09:52:03;;;;;;;3.83;0.40;;;12.50;99.90;;;;;;7471269;19;20006;-78
2023/11/01 09:54:36;;;;;;;1.77;0.43;;;12.50;99.90;;;;;;7426377;19;20840;-78
2023/11/01 09:57:11;;;;;;;1.92;0.57;;;12.60;99.90;;;;;;7446250;19;21297;-78
2023/11/01 09:59:47;;;;;;;0.65;0.50;;;12.70;99.90;;;;;;7471183;19;20700;-77
2023/11/01 10:02:19;;;;;;;0.43;0.32;;;12.80;99.90;;;;;;7443872;19;20511;-77
2023/11/01 10:04:52;;;;;;;1.27;0.40;;;13.00;99.90;;;;;;7459879;19;20078;-77
2023/11/01 10:07:24;;;;;;;1.10;0.67;;;13.10;99.90;;;;;;7455254;19;20719;-76
2023/11/01 10:09:57;;;;;;;0.57;0.47;;;13.10;99.90;;;;;;7433737;19;20014;-77
2023/11/01 10:12:30;;;;;;;0.68;0.43;;;13.20;99.90;;;;;;7447033;19;20426;-77
2023/11/01 10:15:03;;;;;;;2.33;0.45;;;13.30;99.90;;;;;;7444379;19;20027;-77
2023/11/01 10:17:36;;;;;;;1.25;0.60;;;13.30;99.90;;;;;;7448438;19;20966;-77
2023/11/01 10:20:31;;;;;;;0.60;0.45;;;13.50;99.90;;;;;;7441962;19;20140;-79
2023/11/01 10:23:04;;;;;;;7.45;0.73;;;13.60;99.90;;;;;;7448594;19;20036;-78
2023/11/01 10:25:36;;;;;;;3.70;0.80;;;13.60;99.90;;;;;;7457676;19;20026;-77
2023/11/01 10:28:12;;;;;;;0.77;0.60;;;13.70;99.90;;;;;;7459538;19;21138;-79
2023/11/01 10:30:46;;;;;;;1.08;0.50;;;13.80;99.90;;;;;;7462212;19;20020;-77
2023/11/01 10:33:20;;;;;;;3.10;0.75;;;14.00;99.90;;;;;;7453032;19;20445;-77
2023/11/01 10:36:03;;;;;;;1.13;0.73;;;14.00;99.90;;;;;;7448976;19;20375;-77
2023/11/01 10:38:36;;;;;;;3.03;0.70;;;14.00;99.90;;;;;;7456700;19;20739;-76
2023/11/01 10:41:11;;;;;;;1.02;0.65;;;14.10;99.90;;;;;;7456731;19;21030;-76
2023/11/01 10:43:43;;;;;;;2.65;0.80;;;13.90;99.90;;;;;;7453314;19;20021;-77
2023/11/01 10:46:16;;;;;;;2.65;0.60;;;13.90;99.90;;;;;;7462761;19;20489;-78
2023/11/01 10:48:51;;;;;;;1.13;0.77;;;13.90;99.90;;;;;;7482957;19;20014;-77
2023/11/01 10:51:23;;;;;;;1.10;0.80;;;14.00;99.90;;;;;;7483192;19;20377;-77
2023/11/01 10:53:58;;;;;;;1.95;0.98;;;14.00;99.90;;;;;;7456485;19;20018;-77
2023/11/01 10:56:35;;;;;;;1.10;0.65;;;14.20;99.90;;;;;;7465130;19;20332;-77
2023/11/01 10:59:49;;;;;;;1.48;0.60;;;14.10;99.90;;;;;;7443697;19;20057;-76
2023/11/01 11:02:25;;;;;;;3.53;0.80;;;14.00;98.40;;;;;;7467446;19;20021;-76
2023/11/01 11:05:05;;;;;;;1.35;0.55;;;14.20;99.00;;;;;;7416383;19;20031;-78
2023/11/01 11:07:48;;;;;;;0.75;0.45;;;14.30;98.60;;;;;;7438143;19;20042;-76
2023/11/01 11:10:32;;;;;;;2.22;0.70;;;14.30;98.70;;;;;;7485567;19;20614;-76
2023/11/01 11:13:08;;;;;;;1.00;0.50;;;15.50;97.10;;;;;;7451267;19;20125;-75
2023/11/01 11:15:47;;;;;;;1.23;0.70;;;16.00;95.60;;;;;;7432086;19;20453;-77
2023/11/01 11:18:21;;;;;;;1.15;0.60;;;16.80;94.60;;;;;;7436237;19;20601;-76
2023/11/01 11:20:58;;;;;;;1.05;0.60;;;18.00;92.60;;;;;;7441780;19;20018;-76
2023/11/01 11:23:32;;;;;;;7.68;1.02;;;21.20;83.10;;;;;;7417153;19;21072;-77
2023/11/01 11:26:06;;;;;;;1.85;0.82;;;24.20;70.80;;;;;;7382899;19;20600;-76
2023/11/01 11:28:44;;;;;;;0.73;0.70;;;25.20;61.50;;;;;;7438419;19;20320;-78
2023/11/01 11:31:23;;;;;;;3.63;0.75;;;26.80;59.70;;;;;;7478337;19;21739;-78
2023/11/01 11:33:58;;;;;;;0.73;0.60;;;24.80;59.20;;;;;;7478622;19;20014;-78
2023/11/01 11:36:31;;;;;;;2.25;0.60;;;22.90;61.70;;;;;;7464306;19;20022;-79
2023/11/01 11:39:05;;;;;;;0.83;0.50;;;22.20;65.70;;;;;;7451649;19;20584;-76
2023/11/01 11:41:38;;;;;;;1.25;0.60;;;21.90;64.40;;;;;;7445500;19;20887;-76
2023/11/01 11:44:20;;;;;;;3.23;0.70;;;20.90;66.10;;;;;;7428848;19;20231;-77
2023/11/01 11:46:59;;;;;;;0.70;0.60;;;20.60;68.00;;;;;;7448163;19;20078;-77
2023/11/01 11:49:37;;;;;;;0.60;0.50;;;22.40;64.60;;;;;;7454417;19;21129;-78
2023/11/01 11:52:13;;;;;;;2.17;0.63;;;21.20;64.50;;;;;;7461258;19;21075;-79
2023/11/01 11:54:46;;;;;;;1.25;0.60;;;20.20;65.10;;;;;;7473295;19;20010;-78
2023/11/01 11:57:25;;;;;;;0.88;0.52;;;19.10;67.40;;;;;;7459841;19;20060;-79
2023/11/01 12:00:10;;;;;;;1.13;0.50;;;18.20;69.70;;;;;;7461001;19;20127;-78
2023/11/01 12:02:47;;;;;;;0.98;0.50;;;17.80;72.20;;;;;;7405094;19;20023;-77
2023/11/01 12:05:20;;;;;;;0.57;0.40;;;17.50;74.50;;;;;;7443453;19;20024;-76
2023/11/01 12:07:52;;;;;;;1.40;0.70;;;17.20;74.00;;;;;;7443803;19;20022;-76
2023/11/01 12:10:25;;;;;;;0.90;0.60;;;17.20;74.30;;;;;;7445455;19;20144;-76
2023/11/01 12:12:57;;;;;;;4.03;0.68;;;17.00;75.90;;;;;;7435969;19;20228;-78
2023/11/01 12:15:40;;;;;;;0.65;0.52;;;16.80;77.20;;;;;;7470118;19;20018;-75
2023/11/01 12:18:13;;;;;;;1.02;0.65;;;16.80;77.00;;;;;;7452113;19;20014;-77
2023/11/01 12:20:45;;;;;;;1.30;0.45;;;16.90;77.50;;;;;;7415488;19;21228;-77
2023/11/01 12:23:18;;;;;;;1.30;0.63;;;16.80;78.10;;;;;;7453311;19;20761;-77
2023/11/01 12:25:50;;;;;;;3.22;0.70;;;16.80;78.40;;;;;;7438381;19;20052;-77
2023/11/01 12:28:22;;;;;;;1.58;0.65;;;16.70;79.30;;;;;;7460796;19;21305;-77
2023/11/01 12:30:54;;;;;;;2.58;0.50;;;16.50;78.10;;;;;;7450525;19;20471;-76
2023/11/01 12:33:33;;;;;;;1.05;0.52;;;16.20;78.30;;;;;;7506185;19;20014;-77
2023/11/01 12:36:06;;;;;;;0.80;0.60;;;16.30;78.30;;;;;;7454275;19;21837;-76
2023/11/01 12:38:44;;;;;;;0.73;0.57;;;16.30;78.50;;;;;;7449047;19;20033;-76
2023/11/01 12:41:16;;;;;;;3.05;0.80;;;16.40;78.90;;;;;;7460377;19;20509;-77
2023/11/01 12:43:54;;;;;;;2.53;0.68;;;16.70;78.40;;;;;;7445821;19;20018;-76
2023/11/01 12:46:27;;;;;;;5.47;0.82;;;16.70;78.30;;;;;;7451043;19;20011;-76
2023/11/01 12:48:59;;;;;;;2.50;0.68;;;16.70;77.90;;;;;;7444943;19;20666;-75
2023/11/01 12:51:31;;;;;;;2.90;0.70;;;16.60;79.60;;;;;;7474353;19;20017;-76
2023/11/01 12:54:04;;;;;;;1.20;0.70;;;16.60;78.50;;;;;;7436922;19;20822;-75
2023/11/01 12:56:38;;;;;;;1.92;0.90;;;16.90;79.10;;;;;;7489534;19;20035;-75
2023/11/01 12:59:12;;;;;;;1.27;0.80;;;17.60;77.70;;;;;;7463336;19;20025;-75
2023/11/01 13:01:44;;;;;;;0.98;0.60;;;17.70;78.10;;;;;;7472351;19;20055;-76
2023/11/01 13:04:17;;;;;;;1.42;0.80;;;17.40;77.90;;;;;;7458144;19;21353;-76
2023/11/01 13:06:50;;;;;;;1.83;0.82;;;17.20;78.70;;;;;;7470528;19;20030;-76
2023/11/01 13:09:24;;;;;;;1.30;0.70;;;16.70;80.50;;;;;;7467339;19;20013;-76
2023/11/01 13:11:57;;;;;;;0.93;0.50;;;16.30;80.60;;;;;;7450669;19;20684;-76
2023/11/01 13:14:33;;;;;;;2.28;0.90;;;16.00;81.20;;;;;;7466365;19;20575;-76
2023/11/01 13:17:06;;;;;;;2.13;0.60;;;15.80;83.20;;;;;;7467126;19;20617;-79
2023/11/01 13:19:38;;;;;;;1.55;0.70;;;15.60;85.60;;;;;;7492647;19;20006;-76
2023/11/01 13:22:11;;;;;;;0.90;0.75;;;15.40;85.10;;;;;;7467566;19;20471;-75
2023/11/01 13:24:43;;;;;;;0.90;0.57;;;15.30;86.30;;;;;;7465302;19;20266;-76
2023/11/01 13:27:16;;;;;;;1.17;0.80;;;15.20;87.00;;;;;;7484798;19;20483;-76